createdAt,value
2023-05-21T00:01:05.872Z,17.60
2023-05-21T00:03:34.212Z,16.85
2023-05-21T00:06:01.700Z,17.25
2023-05-21T00:08:28.576Z,17.65
2023-05-21T00:10:55.285Z,17.13
2023-05-21T00:13:22.082Z,18.20
2023-05-21T00:15:48.730Z,16.67
2023-05-21T00:18:16.289Z,18.70
2023-05-21T00:20:43.028Z,17.73
2023-05-21T00:23:10.348Z,17.52
2023-05-21T00:25:37.204Z,18.48
2023-05-21T00:28:04.234Z,18.92
2023-05-21T00:30:30.870Z,18.13
2023-05-21T00:32:58.830Z,18.73
2023-05-21T00:35:25.634Z,18.40
2023-05-21T00:37:53.939Z,17.55
2023-05-21T00:40:21.086Z,20.65
2023-05-21T00:42:48.137Z,18.15
2023-05-21T00:45:15.215Z,17.40
2023-05-21T00:47:43.399Z,18.77
2023-05-21T00:50:11.947Z,17.95
2023-05-21T00:52:42.090Z,20.00
2023-05-21T00:55:09.917Z,19.17
2023-05-21T00:57:39.358Z,20.23
2023-05-21T01:02:37.454Z,19.15
2023-05-21T01:05:08.021Z,19.37
2023-05-21T01:07:36.140Z,19.70
2023-05-21T01:10:05.632Z,19.58
2023-05-21T01:12:34.029Z,16.90
2023-05-21T01:15:02.700Z,20.42
2023-05-21T01:17:30.213Z,19.63
2023-05-21T01:20:01.196Z,20.92
2023-05-21T01:22:32.556Z,22.10
2023-05-21T01:25:02.817Z,19.60
2023-05-21T01:27:29.694Z,20.23
2023-05-21T01:29:57.234Z,20.95
2023-05-21T01:32:35.164Z,18.08
2023-05-21T01:35:09.890Z,19.33
2023-05-21T01:37:42.178Z,21.80
2023-05-21T01:40:14.779Z,18.70
2023-05-21T01:42:44.572Z,21.17
2023-05-21T01:45:13.945Z,20.83
2023-05-21T01:47:42.148Z,21.23
2023-05-21T01:50:15.777Z,21.13
2023-05-21T01:52:52.594Z,19.48
2023-05-21T01:55:24.849Z,22.58
2023-05-21T01:57:53.521Z,21.45
2023-05-21T02:00:21.853Z,21.23
2023-05-21T02:02:49.123Z,22.00
2023-05-21T02:05:16.433Z,23.23
2023-05-21T02:07:45.366Z,24.05
2023-05-21T02:10:12.362Z,24.83
2023-05-21T02:12:39.169Z,23.90
2023-05-21T02:15:06.424Z,25.88
2023-05-21T02:17:36.206Z,25.55
2023-05-21T02:20:12.672Z,24.13
2023-05-21T02:22:42.832Z,25.13
2023-05-21T02:25:10.984Z,23.38
2023-05-21T02:27:39.139Z,24.23
2023-05-21T02:30:08.464Z,23.58
2023-05-21T02:32:35.709Z,24.00
2023-05-21T02:35:04.044Z,25.23
2023-05-21T02:37:34.548Z,24.27
2023-05-21T02:40:02.659Z,26.20
2023-05-21T02:42:29.715Z,23.83
2023-05-21T02:44:56.794Z,25.05
2023-05-21T02:47:23.999Z,26.60
2023-05-21T02:49:52.136Z,24.92
2023-05-21T02:52:20.368Z,24.40
2023-05-21T02:54:47.369Z,27.35
2023-05-21T02:57:14.188Z,28.15
2023-05-21T02:59:40.824Z,25.65
2023-05-21T03:02:07.662Z,26.40
2023-05-21T03:04:39.330Z,24.33
2023-05-21T03:07:06.320Z,26.27
2023-05-21T03:09:33.000Z,26.75
2023-05-21T03:11:59.699Z,25.08
2023-05-21T03:14:26.514Z,25.20
2023-05-21T03:16:53.345Z,26.45
2023-05-21T03:19:21.043Z,24.67
2023-05-21T03:21:49.216Z,23.67
2023-05-21T03:24:15.960Z,23.35
2023-05-21T03:26:42.706Z,27.48
2023-05-21T03:29:09.492Z,28.23
2023-05-21T03:31:36.239Z,26.65
2023-05-21T03:34:02.955Z,27.63
2023-05-21T03:36:29.632Z,26.13
2023-05-21T03:38:56.296Z,31.25
2023-05-21T03:41:23.180Z,30.13
2023-05-21T03:43:49.846Z,32.58
2023-05-21T03:46:16.658Z,31.63
2023-05-21T03:48:43.444Z,35.85
2023-05-21T03:51:10.080Z,33.85
2023-05-21T03:53:36.823Z,33.53
2023-05-21T03:56:03.650Z,30.20
2023-05-21T03:58:30.948Z,31.92
2023-05-21T04:00:57.816Z,31.92
2023-05-21T04:03:24.620Z,33.67
2023-05-21T04:05:51.618Z,32.72
2023-05-21T04:08:18.228Z,31.73
2023-05-21T04:10:44.945Z,29.20
2023-05-21T04:13:11.664Z,28.13
2023-05-21T04:15:38.833Z,33.38
2023-05-21T04:18:07.314Z,33.08
2023-05-21T04:20:34.108Z,33.03
2023-05-21T04:23:01.301Z,29.20
2023-05-21T04:25:27.981Z,29.67
2023-05-21T04:27:54.918Z,32.53
2023-05-21T04:30:22.066Z,33.67
2023-05-21T04:32:49.025Z,32.90
2023-05-21T04:35:16.125Z,32.85
2023-05-21T04:37:42.912Z,35.05
2023-05-21T04:40:10.197Z,33.78
2023-05-21T04:42:36.957Z,33.53
2023-05-21T04:45:03.791Z,35.30
2023-05-21T04:47:30.757Z,34.08
2023-05-21T04:49:57.515Z,30.48
2023-05-21T04:52:25.183Z,31.33
2023-05-21T04:54:51.892Z,30.67
2023-05-21T04:57:18.686Z,31.13
2023-05-21T04:59:45.423Z,33.78
2023-05-21T05:02:12.089Z,30.25
2023-05-21T05:04:39.034Z,33.25
2023-05-21T05:07:05.684Z,35.20
2023-05-21T05:09:32.406Z,34.28
2023-05-21T05:11:59.118Z,32.13
2023-05-21T05:14:26.314Z,32.08
2023-05-21T05:16:54.442Z,31.98
2023-05-21T05:19:21.372Z,33.92
2023-05-21T05:21:48.133Z,35.17
2023-05-21T05:24:16.272Z,31.48
2023-05-21T05:26:42.970Z,30.23
2023-05-21T05:29:09.663Z,32.40
2023-05-21T05:31:36.353Z,31.20
2023-05-21T05:34:03.070Z,33.08
2023-05-21T05:36:29.801Z,33.13
2023-05-21T05:38:56.466Z,32.92
2023-05-21T05:41:23.402Z,32.10
2023-05-21T05:43:50.322Z,33.53
2023-05-21T05:46:17.398Z,31.38
2023-05-21T05:48:44.197Z,33.35
2023-05-21T05:51:12.041Z,31.73
2023-05-21T05:53:38.782Z,30.08
2023-05-21T05:56:06.023Z,29.30
2023-05-21T05:58:33.075Z,30.02
2023-05-21T06:00:59.773Z,29.67
2023-05-21T06:03:27.227Z,29.90
2023-05-21T06:05:54.118Z,30.40
2023-05-21T06:08:20.923Z,30.20
2023-05-21T06:10:47.653Z,30.38
2023-05-21T06:13:14.324Z,29.60
2023-05-21T06:15:43.373Z,31.77
2023-05-21T06:18:10.393Z,30.10
2023-05-21T06:20:37.261Z,30.23
2023-05-21T06:23:09.031Z,30.08
2023-05-21T06:25:36.150Z,28.20
2023-05-21T06:28:03.247Z,28.88
2023-05-21T06:30:30.043Z,28.35
2023-05-21T06:32:57.596Z,28.70
2023-05-21T06:35:24.650Z,28.40
2023-05-21T06:37:51.266Z,28.67
2023-05-21T06:40:18.067Z,28.02
2023-05-21T06:42:44.815Z,27.40
2023-05-21T06:45:12.197Z,28.92
2023-05-21T06:47:38.937Z,27.52
2023-05-21T06:50:05.970Z,29.13
2023-05-21T06:52:32.634Z,29.73
2023-05-21T06:54:59.369Z,27.98
2023-05-21T06:57:26.093Z,29.15
2023-05-21T06:59:52.776Z,28.63
2023-05-21T07:02:19.587Z,26.33
2023-05-21T07:04:46.386Z,29.63
2023-05-21T07:07:13.176Z,29.02
2023-05-21T07:09:40.400Z,27.55
2023-05-21T07:12:07.411Z,27.20
2023-05-21T07:14:34.015Z,27.13
2023-05-21T07:17:00.735Z,27.10
2023-05-21T07:19:27.649Z,25.70
2023-05-21T07:21:54.434Z,25.63
2023-05-21T07:24:21.251Z,25.30
2023-05-21T07:26:48.044Z,25.65
2023-05-21T07:29:14.710Z,26.73
2023-05-21T07:31:41.430Z,26.27
2023-05-21T07:34:08.348Z,23.52
2023-05-21T07:36:35.185Z,23.80
2023-05-21T07:39:01.930Z,25.60
2023-05-21T07:41:28.620Z,25.80
2023-05-21T07:43:55.261Z,23.77
2023-05-21T07:46:22.320Z,24.48
2023-05-21T07:48:50.051Z,24.13
2023-05-21T07:51:17.294Z,25.50
2023-05-21T07:53:44.019Z,23.15
2023-05-21T07:56:10.887Z,24.00
2023-05-21T07:58:37.854Z,24.70
2023-05-21T08:01:04.601Z,24.35
2023-05-21T08:03:31.339Z,24.23
2023-05-21T08:05:58.197Z,23.90
2023-05-21T08:08:25.561Z,23.80
2023-05-21T08:10:52.271Z,25.27
2023-05-21T08:13:19.031Z,24.17
2023-05-21T08:15:45.891Z,23.80
2023-05-21T08:18:12.658Z,23.17
2023-05-21T08:20:39.410Z,25.02
2023-05-21T08:23:06.168Z,23.13
2023-05-21T08:25:33.078Z,23.08
2023-05-21T08:27:59.822Z,23.67
2023-05-21T08:30:26.538Z,20.98
2023-05-21T08:32:53.952Z,23.75
2023-05-21T08:35:20.894Z,22.08
2023-05-21T08:37:47.509Z,21.88
2023-05-21T08:40:14.693Z,21.95
2023-05-21T08:42:45.164Z,20.95
2023-05-21T08:45:14.336Z,22.00
2023-05-21T08:47:44.869Z,21.65
2023-05-21T08:50:14.199Z,20.95
2023-05-21T08:55:09.221Z,22.35
2023-05-21T08:57:36.774Z,23.55
2023-05-21T09:00:07.010Z,23.08
2023-05-21T09:02:35.303Z,23.58
2023-05-21T09:05:03.906Z,23.27
2023-05-21T09:07:34.329Z,22.83
2023-05-21T09:10:10.797Z,19.90
2023-05-21T09:12:37.724Z,23.38
2023-05-21T09:15:05.211Z,24.13
2023-05-21T09:17:31.975Z,23.40
2023-05-21T09:20:17.513Z,21.92
2023-05-21T09:22:46.110Z,21.05
2023-05-21T09:25:15.095Z,22.50
2023-05-21T09:27:41.890Z,24.00
2023-05-21T09:30:16.294Z,22.70
2023-05-21T09:32:44.413Z,21.45
2023-05-21T09:35:12.919Z,20.75
2023-05-21T09:37:39.647Z,20.73
2023-05-21T09:40:22.898Z,20.58
2023-05-21T09:42:50.484Z,20.80
2023-05-21T09:45:24.075Z,20.52
2023-05-21T09:47:52.411Z,20.55
2023-05-21T09:50:22.901Z,19.67
2023-05-21T09:52:50.472Z,19.42
2023-05-21T09:55:17.498Z,19.58
2023-05-21T09:57:47.163Z,20.50
2023-05-21T10:00:27.560Z,18.75
2023-05-21T10:02:56.201Z,18.77
2023-05-21T10:05:28.789Z,17.98
2023-05-21T10:08:03.080Z,17.40
2023-05-21T10:10:31.556Z,17.80
2023-05-21T10:13:04.215Z,18.93
2023-05-21T10:15:35.151Z,18.02
2023-05-21T10:18:03.368Z,19.42
2023-05-21T10:20:30.871Z,17.80
2023-05-21T10:22:59.847Z,17.80
2023-05-21T10:25:26.779Z,17.83
2023-05-21T10:27:56.031Z,18.20
2023-05-21T10:32:50.542Z,17.13
2023-05-21T10:35:17.835Z,17.27
2023-05-21T10:37:45.957Z,17.17
2023-05-21T10:40:13.614Z,17.90
2023-05-21T10:42:49.509Z,18.45
2023-05-21T10:45:47.994Z,16.80
2023-05-21T10:48:26.717Z,16.48
2023-05-21T10:51:20.354Z,18.63
2023-05-21T10:54:02.004Z,19.00
2023-05-21T10:57:13.972Z,17.10
2023-05-21T10:59:45.984Z,16.50
2023-05-21T11:02:14.940Z,16.45
2023-05-21T11:04:45.697Z,16.88
2023-05-21T11:07:12.903Z,16.25
2023-05-21T11:09:39.688Z,16.85
2023-05-21T11:12:08.139Z,16.20
2023-05-21T11:14:39.090Z,16.25
2023-05-21T11:17:15.916Z,16.05
2023-05-21T11:19:44.469Z,15.73
2023-05-21T11:22:21.576Z,15.95
2023-05-21T11:24:51.158Z,15.60
2023-05-21T11:27:41.207Z,15.05
2023-05-21T11:30:17.016Z,15.40
2023-05-21T11:33:08.436Z,15.20
2023-05-21T11:35:50.324Z,15.20
2023-05-21T11:38:18.058Z,14.27
2023-05-21T11:41:09.246Z,14.27
2023-05-21T11:43:40.698Z,16.42
2023-05-21T11:46:07.555Z,15.15
2023-05-21T11:48:36.714Z,14.48
2023-05-21T11:53:30.414Z,15.63
2023-05-21T11:55:57.734Z,14.75
2023-05-21T11:58:24.517Z,14.27
2023-05-21T12:00:52.224Z,14.57
2023-05-21T12:03:19.928Z,14.25
2023-05-21T12:05:47.863Z,14.20
2023-05-21T12:08:22.555Z,14.00
2023-05-21T12:10:49.257Z,13.40
2023-05-21T12:13:15.988Z,12.50
2023-05-21T12:15:42.636Z,13.30
2023-05-21T12:18:09.296Z,13.70
2023-05-21T12:20:36.159Z,13.30
2023-05-21T12:23:02.961Z,12.45
2023-05-21T12:25:30.542Z,12.82
2023-05-21T12:27:58.799Z,12.00
2023-05-21T12:30:26.395Z,12.40
2023-05-21T12:32:53.176Z,12.55
2023-05-21T12:35:24.283Z,11.48
2023-05-21T12:37:51.540Z,12.73
2023-05-21T12:40:19.403Z,12.40
2023-05-21T12:42:46.192Z,12.20
2023-05-21T12:45:13.435Z,12.25
2023-05-21T12:47:40.191Z,12.82
2023-05-21T12:50:14.057Z,11.73
2023-05-21T12:52:43.104Z,12.15
2023-05-21T12:57:39.127Z,12.25
2023-05-21T13:00:07.456Z,12.55
2023-05-21T13:02:44.400Z,12.98
2023-05-21T13:05:20.153Z,12.85
2023-05-21T13:07:47.826Z,11.43
2023-05-21T13:10:18.589Z,12.57
2023-05-21T13:12:45.728Z,11.60
2023-05-21T13:15:12.694Z,11.93
2023-05-21T13:17:39.385Z,11.52
2023-05-21T13:20:16.945Z,11.70
2023-05-21T13:22:52.761Z,12.02
2023-05-21T13:25:25.179Z,12.60
2023-05-21T13:27:53.165Z,12.15
2023-05-21T13:30:20.947Z,11.00
2023-05-21T13:32:48.074Z,11.68
2023-05-21T13:35:16.771Z,11.65
2023-05-21T13:37:44.115Z,11.02
2023-05-21T13:40:12.529Z,11.30
2023-05-21T13:42:39.223Z,10.40
2023-05-21T13:45:07.691Z,10.32
2023-05-21T13:47:35.689Z,10.32
2023-05-21T13:50:03.549Z,10.57
2023-05-21T13:52:30.177Z,10.60
2023-05-21T13:54:57.025Z,10.13
2023-05-21T13:57:26.805Z,11.18
2023-05-21T13:59:53.679Z,10.15
2023-05-21T14:02:20.485Z,10.43
2023-05-21T14:04:47.198Z,10.77
2023-05-21T14:07:13.947Z,10.10
2023-05-21T14:09:40.773Z,9.95
2023-05-21T14:12:07.573Z,9.82
2023-05-21T14:14:34.378Z,10.25
2023-05-21T14:17:01.108Z,9.75
2023-05-21T14:19:31.336Z,10.23
2023-05-21T14:21:59.894Z,9.77
2023-05-21T14:24:26.640Z,9.68
2023-05-21T14:26:53.363Z,9.35
2023-05-21T14:29:20.009Z,9.07
2023-05-21T14:31:46.729Z,9.30
2023-05-21T14:34:13.412Z,8.90
2023-05-21T14:36:40.133Z,9.32
2023-05-21T14:39:06.984Z,8.55
2023-05-21T14:41:33.666Z,9.15
2023-05-21T14:44:00.445Z,8.60
2023-05-21T14:46:27.097Z,8.82
2023-05-21T14:48:55.450Z,8.27
2023-05-21T14:51:22.355Z,8.77
2023-05-21T14:53:48.932Z,8.43
2023-05-21T14:56:15.684Z,8.80
2023-05-21T14:58:42.321Z,8.95
2023-05-21T15:01:09.129Z,8.43
2023-05-21T15:03:35.923Z,8.50
2023-05-21T15:06:02.655Z,7.32
2023-05-21T15:08:29.290Z,8.77
2023-05-21T15:10:57.041Z,8.27
2023-05-21T15:13:23.820Z,8.30
2023-05-21T15:15:50.578Z,7.35
2023-05-21T15:18:17.434Z,7.80
2023-05-21T15:20:44.389Z,7.28
2023-05-21T15:25:40.685Z,7.57
2023-05-21T15:28:07.373Z,7.03
2023-05-21T15:30:34.252Z,7.18
2023-05-21T15:33:00.916Z,6.88
2023-05-21T15:35:28.273Z,6.90
2023-05-21T15:37:55.045Z,7.28
2023-05-21T15:40:22.663Z,6.45
2023-05-21T15:42:50.668Z,6.80
2023-05-21T15:45:17.456Z,6.93
2023-05-21T15:47:44.125Z,7.10
2023-05-21T15:50:11.289Z,8.77
2023-05-21T15:52:38.124Z,6.13
2023-05-21T15:55:05.202Z,6.88
2023-05-21T15:57:31.947Z,6.20
2023-05-21T15:59:58.716Z,6.65
2023-05-21T16:02:25.641Z,6.53
2023-05-21T16:04:52.388Z,7.15
2023-05-21T16:07:19.299Z,6.80
2023-05-21T16:09:46.022Z,6.65
2023-05-21T16:12:13.465Z,6.60
2023-05-21T16:14:40.106Z,7.25
2023-05-21T16:17:06.947Z,6.97
2023-05-21T16:19:33.898Z,6.80
2023-05-21T16:22:01.952Z,6.72
2023-05-21T16:24:28.609Z,6.60
2023-05-21T16:26:55.294Z,6.13
2023-05-21T16:29:22.221Z,6.50
2023-05-21T16:31:49.088Z,6.47
2023-05-21T16:34:15.877Z,6.50
2023-05-21T16:36:42.641Z,6.22
2023-05-21T16:39:09.321Z,5.85
2023-05-21T16:41:35.963Z,6.22
2023-05-21T16:44:02.762Z,6.80
2023-05-21T16:46:29.449Z,6.40
2023-05-21T16:48:56.156Z,6.72
2023-05-21T16:51:22.817Z,6.50
2023-05-21T16:53:49.506Z,6.20
2023-05-21T16:56:16.153Z,5.88
2023-05-21T16:58:42.829Z,6.03
2023-05-21T17:01:09.520Z,5.93
2023-05-21T17:03:36.516Z,5.57
2023-05-21T17:06:03.343Z,6.10
2023-05-21T17:08:30.058Z,7.53
2023-05-21T17:10:56.797Z,6.68
2023-05-21T17:13:23.630Z,6.38
2023-05-21T17:15:51.259Z,5.85
2023-05-21T17:18:18.140Z,6.15
2023-05-21T17:20:45.218Z,6.80
2023-05-21T17:23:12.113Z,5.55
2023-05-21T17:25:39.666Z,6.38
2023-05-21T17:28:06.871Z,6.63
2023-05-21T17:30:33.665Z,6.15
2023-05-21T17:33:02.335Z,5.82
2023-05-21T17:35:29.315Z,6.47
2023-05-21T17:37:56.055Z,6.57
2023-05-21T17:40:24.523Z,7.30
2023-05-21T17:42:52.394Z,13.25
2023-05-21T17:45:19.509Z,8.88
2023-05-21T17:47:46.400Z,8.60
2023-05-21T17:50:13.545Z,7.68
2023-05-21T17:52:40.371Z,7.72
2023-05-21T17:55:08.001Z,8.07
2023-05-21T17:57:36.023Z,8.65
2023-05-21T18:00:05.122Z,8.27
2023-05-21T18:02:31.910Z,8.40
2023-05-21T18:04:58.716Z,8.43
2023-05-21T18:07:25.673Z,8.75
2023-05-21T18:09:52.568Z,8.85
2023-05-21T18:12:19.212Z,8.90
2023-05-21T18:14:45.946Z,8.70
2023-05-21T18:17:13.112Z,8.43
2023-05-21T18:19:39.919Z,9.18
2023-05-21T18:22:06.727Z,9.05
2023-05-21T18:24:33.473Z,9.60
2023-05-21T18:27:00.111Z,8.38
2023-05-21T18:29:26.780Z,8.80
2023-05-21T18:31:53.835Z,9.35
2023-05-21T18:34:20.574Z,9.52
2023-05-21T18:36:48.220Z,9.07
2023-05-21T18:39:15.214Z,8.90
2023-05-21T18:41:42.013Z,8.60
2023-05-21T18:44:08.881Z,9.60
2023-05-21T18:46:36.456Z,9.82
2023-05-21T18:49:03.286Z,9.35
2023-05-21T18:51:30.017Z,9.20
2023-05-21T18:53:56.669Z,9.57
2023-05-21T18:56:23.326Z,8.75
2023-05-21T18:58:50.112Z,9.13
2023-05-21T19:01:18.181Z,9.40
2023-05-21T19:03:45.042Z,8.98
2023-05-21T19:06:11.736Z,8.63
2023-05-21T19:08:39.076Z,8.80
2023-05-21T19:11:07.273Z,9.13
2023-05-21T19:13:34.374Z,9.70
2023-05-21T19:16:02.179Z,9.25
2023-05-21T19:18:32.452Z,8.77
2023-05-21T19:21:00.541Z,9.32
2023-05-21T19:23:27.423Z,9.20
2023-05-21T19:25:54.156Z,8.80
2023-05-21T19:28:20.864Z,8.80
2023-05-21T19:30:47.577Z,9.15
2023-05-21T19:33:14.375Z,8.93
2023-05-21T19:35:43.173Z,9.52
2023-05-21T19:38:12.915Z,9.43
2023-05-21T19:40:39.692Z,8.98
2023-05-21T19:43:06.333Z,8.85
2023-05-21T19:45:33.068Z,9.15
2023-05-21T19:47:59.882Z,9.50
2023-05-21T19:50:28.741Z,9.05
2023-05-21T19:52:57.298Z,9.15
2023-05-21T19:55:24.796Z,9.55
2023-05-21T19:57:51.808Z,9.40
2023-05-21T20:00:19.043Z,9.73
2023-05-21T20:02:46.361Z,9.18
2023-05-21T20:05:13.565Z,9.25
2023-05-21T20:07:41.286Z,9.05
2023-05-21T20:10:08.810Z,9.82
2023-05-21T20:12:35.808Z,9.77
2023-05-21T20:15:03.460Z,9.52
2023-05-21T20:17:30.609Z,9.52
2023-05-21T20:19:59.129Z,9.55
2023-05-21T20:22:26.043Z,9.33
2023-05-21T20:24:53.050Z,9.43
2023-05-21T20:27:20.127Z,9.75
2023-05-21T20:29:47.008Z,9.93
2023-05-21T20:32:13.752Z,9.55
2023-05-21T20:34:54.318Z,9.95
2023-05-21T20:37:29.039Z,10.38
2023-05-21T20:39:58.666Z,9.80
2023-05-21T20:42:28.493Z,10.35
2023-05-21T20:44:55.499Z,10.27
2023-05-21T20:47:23.439Z,9.90
2023-05-21T20:49:53.757Z,10.18
2023-05-21T20:52:20.825Z,10.18
2023-05-21T20:54:48.967Z,9.52
2023-05-21T20:57:18.544Z,10.57
2023-05-21T20:59:45.194Z,10.23
2023-05-21T21:02:12.811Z,10.40
2023-05-21T21:04:39.891Z,10.82
2023-05-21T21:07:08.173Z,10.10
2023-05-21T21:09:34.868Z,10.30
2023-05-21T21:12:11.327Z,10.18
2023-05-21T21:14:48.171Z,10.30
2023-05-21T21:17:14.883Z,10.23
2023-05-21T21:19:41.605Z,10.50
2023-05-21T21:22:08.342Z,11.52
2023-05-21T21:24:35.037Z,10.80
2023-05-21T21:27:01.717Z,9.93
2023-05-21T21:29:28.452Z,10.57
2023-05-21T21:31:55.156Z,10.85
2023-05-21T21:34:23.547Z,11.00
2023-05-21T21:36:50.766Z,10.60
2023-05-21T21:39:20.294Z,10.88
2023-05-21T21:41:47.003Z,10.50
2023-05-21T21:44:13.846Z,11.05
2023-05-21T21:46:41.021Z,9.88
2023-05-21T21:49:07.721Z,11.13
2023-05-21T21:51:34.965Z,10.55
2023-05-21T21:54:01.620Z,10.60
2023-05-21T21:56:30.131Z,10.88
2023-05-21T21:58:56.915Z,10.60
2023-05-21T22:01:23.880Z,11.27
2023-05-21T22:03:50.642Z,11.00
2023-05-21T22:06:17.380Z,12.00
2023-05-21T22:08:44.247Z,11.93
2023-05-21T22:11:31.436Z,11.77
2023-05-21T22:14:00.421Z,10.73
2023-05-21T22:16:30.457Z,10.60
2023-05-21T22:18:58.114Z,11.18
2023-05-21T22:21:27.367Z,12.07
2023-05-21T22:23:54.118Z,10.93
2023-05-21T22:26:21.216Z,10.93
2023-05-21T22:28:47.900Z,11.43
2023-05-21T22:31:14.704Z,10.88
2023-05-21T22:33:41.356Z,11.00
2023-05-21T22:36:08.289Z,10.88
2023-05-21T22:38:34.997Z,11.57
2023-05-21T22:41:01.661Z,11.77
2023-05-21T22:43:28.344Z,11.52
2023-05-21T22:45:55.160Z,11.23
2023-05-21T22:48:22.082Z,11.38
2023-05-21T22:50:50.347Z,10.90
2023-05-21T22:53:17.626Z,12.02
2023-05-21T22:55:44.517Z,11.40
2023-05-21T22:58:11.239Z,11.35
2023-05-21T23:00:38.181Z,11.23
2023-05-21T23:03:05.052Z,12.40
2023-05-21T23:05:31.826Z,11.55
2023-05-21T23:07:58.491Z,11.10
2023-05-21T23:10:25.188Z,11.95
2023-05-21T23:12:52.022Z,11.75
2023-05-21T23:15:19.035Z,12.13
2023-05-21T23:17:45.923Z,12.88
2023-05-21T23:20:13.248Z,12.48
2023-05-21T23:22:39.989Z,12.02
2023-05-21T23:25:07.409Z,12.13
2023-05-21T23:27:34.093Z,12.18
2023-05-21T23:30:00.794Z,11.55
2023-05-21T23:32:27.686Z,11.30
2023-05-21T23:34:54.423Z,12.13
2023-05-21T23:37:21.247Z,11.75
2023-05-21T23:39:49.781Z,12.45
2023-05-21T23:42:17.525Z,12.93
2023-05-21T23:44:44.421Z,12.60
2023-05-21T23:47:11.137Z,12.25
2023-05-21T23:49:38.006Z,11.98
2023-05-21T23:52:05.875Z,12.95
2023-05-21T23:54:32.506Z,13.02
2023-05-21T23:56:59.164Z,13.05
2023-05-21T23:59:25.875Z,12.90
